Terminal Aerodrome Forecast
Issued by NWS Atlanta, GA

Home | Current Version | Previous Version | Text Only | Print | Product List | Glossary On
Versions: 1 2 3 4 5 6 7 8 9 10 11 12 13 14 15 16 17 18 19 20 21 22 23 24 25 26 27 28 29 30 31 32 33 34 35 36 37 38
677
FTUS42 KFFC 230731 AAA
TAFATL
TAF AMD
KATL 230731Z 2308/2412 17006KT P6SM FEW025 BKN100
     FM231000 19006KT P6SM BKN025
     FM231200 19006KT P6SM FEW008 BKN012
     FM231500 20010KT P6SM SCT025
     FM231800 20011KT P6SM VCSH SCT035 PROB30 2320/2402 5SM TSRA
      BKN035CB
     FM240200 21011KT P6SM VCSH BKN035
     FM240700 23011KT P6SM -RA OVC009=

USA.gov is the U.S. government's official web portal to all federal, state and local government web resources and services.